Weather at General Wayne A. Downing Peoria International Airport

Public forecast

Using degrees Fahrenheit for public forecast. Weather courtesy of forecast.io.

Current aviation weather report (METAR) for General Wayne A. Downing Peoria International Airport

2024/05/28 23:54 (retrieved 11 minutes ago)

KPIA 282354Z 30011G22KT 10SM CLR 22/08 A3003 RMK AO2 SLP166 60000 T02170078 10239 20217 53002

Closest aviation forecast (TAF) to General Wayne A. Downing Peoria International Airport

Closest forecast is Grissom Air Reserve Base, 161.3 nm (298.7 km) E.

2024/05/28 21:14 (retrieved 3 hours ago)

TAF KGUS 282100Z 2821/3003 33010G15KT 9999 SCT030 BKN070 BKN250 QNH2992INS TEMPO 2821/2903 VRB15G25KT 6000 -TSRA SCT010 BKN030CB BECMG 2905/2906 33008KT 8000 -SHRA SCT010 BKN017 OVC024 QNH2998INS BECMG 2912/2913 35012G22KT 9999 NSW OVC015 510033 QNH3007INS BECMG 2916/2917 35015KT 9999 SCT050 OVC075 QNH3015INS TX24/2821Z TN11/2911Z LAST NO AMDS AFT 2903 NEXT 2613